createdAt,value
2022-08-26T00:00:16.320Z,19.98
2022-08-26T00:01:16.287Z,19.95
2022-08-26T00:02:16.313Z,19.97
2022-08-26T00:03:16.298Z,19.98
2022-08-26T00:04:16.329Z,20.00
2022-08-26T00:05:16.267Z,20.00
2022-08-26T00:06:16.246Z,19.98
2022-08-26T00:07:16.246Z,20.00
2022-08-26T00:08:16.216Z,20.02
2022-08-26T00:09:16.877Z,20.00
2022-08-26T00:10:16.175Z,20.00
2022-08-26T00:11:16.176Z,19.98
2022-08-26T00:12:17.145Z,19.97
2022-08-26T00:13:16.148Z,19.95
2022-08-26T00:14:16.192Z,19.95
2022-08-26T00:15:16.144Z,19.97
2022-08-26T00:16:16.172Z,19.98
2022-08-26T00:17:16.113Z,19.98
2022-08-26T00:18:21.776Z,19.98
2022-08-26T00:19:17.109Z,19.98
2022-08-26T00:20:16.154Z,19.98
2022-08-26T00:21:16.045Z,19.98
2022-08-26T00:22:20.158Z,19.98
2022-08-26T00:23:16.051Z,19.97
2022-08-26T00:24:16.012Z,19.95
2022-08-26T00:25:16.062Z,19.97
2022-08-26T00:26:15.962Z,19.93
2022-08-26T00:27:15.953Z,19.93
2022-08-26T00:28:15.965Z,19.92
2022-08-26T00:29:15.978Z,19.90
2022-08-26T00:30:15.932Z,19.89
2022-08-26T00:31:16.963Z,19.89
2022-08-26T00:32:15.941Z,19.87
2022-08-26T00:33:15.881Z,19.86
2022-08-26T00:34:15.891Z,19.87
2022-08-26T00:35:15.960Z,19.85
2022-08-26T00:36:20.222Z,19.83
2022-08-26T00:37:16.349Z,19.83
2022-08-26T00:38:15.810Z,19.83
2022-08-26T00:39:15.800Z,19.80
2022-08-26T00:40:15.839Z,19.79
2022-08-26T00:41:17.009Z,19.78
2022-08-26T00:42:15.793Z,19.79
2022-08-26T00:43:15.755Z,19.80
2022-08-26T00:44:15.730Z,19.79
2022-08-26T00:45:15.814Z,19.79
2022-08-26T00:46:15.766Z,19.79
2022-08-26T00:47:15.738Z,19.79
2022-08-26T00:48:15.709Z,19.78
2022-08-26T00:49:15.679Z,19.78
2022-08-26T00:50:15.676Z,19.75
2022-08-26T00:51:15.668Z,19.74
2022-08-26T00:52:15.627Z,19.72
2022-08-26T00:53:15.751Z,19.72
2022-08-26T00:54:15.680Z,19.72
2022-08-26T00:55:20.161Z,19.72
2022-08-26T00:56:15.595Z,19.72
2022-08-26T00:57:16.040Z,19.71
2022-08-26T00:58:15.565Z,19.70
2022-08-26T00:59:15.580Z,19.71
2022-08-26T01:00:15.536Z,19.71
2022-08-26T01:01:15.541Z,19.71
2022-08-26T01:02:20.223Z,19.70
2022-08-26T01:03:16.515Z,19.68
2022-08-26T01:04:15.545Z,19.68
2022-08-26T01:05:15.484Z,19.67
2022-08-26T01:06:15.494Z,19.68
2022-08-26T01:07:15.445Z,19.68
2022-08-26T01:08:15.444Z,19.70
2022-08-26T01:09:15.443Z,19.67
2022-08-26T01:10:15.411Z,19.67
2022-08-26T01:11:15.461Z,19.67
2022-08-26T01:12:15.418Z,19.67
2022-08-26T01:13:16.382Z,19.67
2022-08-26T01:14:15.361Z,19.67
2022-08-26T01:15:15.375Z,19.65
2022-08-26T01:16:15.464Z,19.65
2022-08-26T01:17:15.321Z,19.64
2022-08-26T01:18:15.327Z,19.65
2022-08-26T01:19:15.300Z,19.64
2022-08-26T01:20:15.278Z,19.64
2022-08-26T01:21:15.301Z,19.63
2022-08-26T01:22:15.249Z,19.63
2022-08-26T01:23:15.270Z,19.63
2022-08-26T01:24:15.220Z,19.60
2022-08-26T01:25:15.250Z,19.61
2022-08-26T01:26:19.747Z,19.61
2022-08-26T01:27:15.201Z,19.57
2022-08-26T01:28:15.179Z,19.56
2022-08-26T01:29:15.168Z,19.56
2022-08-26T01:30:15.157Z,19.56
2022-08-26T01:31:15.209Z,19.55
2022-08-26T01:32:15.127Z,19.53
2022-08-26T01:33:15.129Z,19.52
2022-08-26T01:34:15.117Z,19.50
2022-08-26T01:35:15.094Z,19.49
2022-08-26T01:36:15.115Z,19.47
2022-08-26T01:37:16.101Z,19.49
2022-08-26T01:38:15.061Z,19.47
2022-08-26T01:39:15.018Z,19.46
2022-08-26T01:40:15.109Z,19.47
2022-08-26T01:41:19.571Z,19.45
2022-08-26T01:42:16.017Z,19.45
2022-08-26T01:43:14.994Z,19.45
2022-08-26T01:44:15.011Z,19.42
2022-08-26T01:45:14.965Z,19.42
2022-08-26T01:46:15.042Z,19.43
2022-08-26T01:47:14.968Z,19.42
2022-08-26T01:48:14.924Z,19.40
2022-08-26T01:49:14.905Z,19.40
2022-08-26T01:50:17.908Z,19.38
2022-08-26T01:51:15.925Z,19.42
2022-08-26T01:52:14.873Z,19.40
2022-08-26T01:53:14.892Z,19.37
2022-08-26T01:54:14.864Z,19.37
2022-08-26T01:55:14.823Z,19.35
2022-08-26T01:56:15.852Z,19.34
2022-08-26T01:57:14.833Z,19.32
2022-08-26T01:58:14.811Z,19.31
2022-08-26T01:59:14.773Z,19.31
2022-08-26T02:00:14.777Z,19.30
2022-08-26T02:01:14.819Z,19.31
2022-08-26T02:02:14.732Z,19.30
2022-08-26T02:03:14.741Z,19.31
2022-08-26T02:04:14.741Z,19.30
2022-08-26T02:05:14.734Z,19.28
2022-08-26T02:06:14.732Z,19.28
2022-08-26T02:07:14.700Z,19.28
2022-08-26T02:08:14.747Z,19.25
2022-08-26T02:09:15.672Z,19.25
2022-08-26T02:10:14.659Z,19.23
2022-08-26T02:11:14.642Z,19.23
2022-08-26T02:12:14.618Z,19.20
2022-08-26T02:13:14.599Z,19.19
2022-08-26T02:14:14.578Z,19.20
2022-08-26T02:15:14.581Z,19.23
2022-08-26T02:16:14.737Z,19.20
2022-08-26T02:17:14.548Z,19.20
2022-08-26T02:18:14.660Z,19.20
2022-08-26T02:19:16.995Z,19.19
2022-08-26T02:20:14.950Z,19.19
2022-08-26T02:21:14.509Z,19.19
2022-08-26T02:22:14.485Z,19.17
2022-08-26T02:23:14.487Z,19.16
2022-08-26T02:24:14.465Z,19.17
2022-08-26T02:25:14.472Z,19.15
2022-08-26T02:26:16.490Z,19.15
2022-08-26T02:27:14.414Z,19.13
2022-08-26T02:28:14.435Z,19.12
2022-08-26T02:29:14.425Z,19.10
2022-08-26T02:30:14.397Z,19.10
2022-08-26T02:31:14.414Z,19.09
2022-08-26T02:32:14.354Z,19.09
2022-08-26T02:33:14.366Z,19.07
2022-08-26T02:34:14.324Z,19.06
2022-08-26T02:35:16.080Z,19.05
2022-08-26T02:36:15.334Z,19.00
2022-08-26T02:37:14.313Z,19.00
2022-08-26T02:38:14.442Z,18.99
2022-08-26T02:39:18.002Z,19.00
2022-08-26T02:40:15.303Z,18.99
2022-08-26T02:41:14.270Z,18.97
2022-08-26T02:42:14.223Z,18.96
2022-08-26T02:43:14.253Z,18.96
2022-08-26T02:44:14.182Z,18.96
2022-08-26T02:45:14.182Z,18.96
2022-08-26T02:46:27.647Z,18.96
2022-08-26T02:47:15.232Z,18.96
2022-08-26T02:48:14.175Z,18.94
2022-08-26T02:49:14.140Z,18.94
2022-08-26T02:50:14.120Z,18.94
2022-08-26T02:51:14.140Z,18.94
2022-08-26T02:52:14.100Z,18.94
2022-08-26T02:53:14.084Z,18.94
2022-08-26T02:54:14.100Z,18.94
2022-08-26T02:55:14.049Z,18.91
2022-08-26T02:56:14.039Z,18.91
2022-08-26T02:57:14.036Z,18.94
2022-08-26T02:58:14.029Z,18.90
2022-08-26T02:59:14.049Z,18.89
2022-08-26T03:00:13.989Z,18.90
2022-08-26T03:01:14.090Z,18.89
2022-08-26T03:02:14.026Z,18.87
2022-08-26T03:03:13.957Z,18.87
2022-08-26T03:04:13.959Z,18.87
2022-08-26T03:05:13.990Z,18.87
2022-08-26T03:06:13.957Z,18.86
2022-08-26T03:07:13.939Z,18.86
2022-08-26T03:08:13.903Z,18.84
2022-08-26T03:09:14.020Z,18.82
2022-08-26T03:10:14.946Z,18.81
2022-08-26T03:11:13.911Z,18.79
2022-08-26T03:12:14.034Z,18.81
2022-08-26T03:13:13.825Z,18.79
2022-08-26T03:14:13.826Z,18.79
2022-08-26T03:15:17.650Z,18.78
2022-08-26T03:16:13.836Z,18.76
2022-08-26T03:17:13.784Z,18.78
2022-08-26T03:18:13.814Z,18.78
2022-08-26T03:19:13.914Z,18.74
2022-08-26T03:20:13.811Z,18.75
2022-08-26T03:21:13.764Z,18.74
2022-08-26T03:22:14.619Z,18.74
2022-08-26T03:23:13.742Z,18.74
2022-08-26T03:24:13.693Z,18.71
2022-08-26T03:25:13.670Z,18.72
2022-08-26T03:26:13.692Z,18.71
2022-08-26T03:27:13.692Z,18.69
2022-08-26T03:28:13.698Z,18.69
2022-08-26T03:29:13.672Z,18.69
2022-08-26T03:30:13.633Z,18.68
2022-08-26T03:31:13.745Z,18.66
2022-08-26T03:32:13.588Z,18.65
2022-08-26T03:33:13.599Z,18.66
2022-08-26T03:34:13.581Z,18.65
2022-08-26T03:35:13.590Z,18.63
2022-08-26T03:36:13.589Z,18.65
2022-08-26T03:37:13.539Z,18.61
2022-08-26T03:38:13.579Z,18.60
2022-08-26T03:39:13.509Z,18.61
2022-08-26T03:40:13.522Z,18.60
2022-08-26T03:41:13.481Z,18.59
2022-08-26T03:42:13.460Z,18.59
2022-08-26T03:43:13.456Z,18.59
2022-08-26T03:44:13.438Z,18.57
2022-08-26T03:45:13.427Z,18.57
2022-08-26T03:46:13.441Z,18.56
2022-08-26T03:47:13.427Z,18.56
2022-08-26T03:48:13.397Z,18.56
2022-08-26T03:49:13.477Z,18.53
2022-08-26T03:50:13.368Z,18.54
2022-08-26T03:51:13.377Z,18.53
2022-08-26T03:52:13.376Z,18.50
2022-08-26T03:53:13.489Z,18.50
2022-08-26T03:54:13.304Z,18.49
2022-08-26T03:55:13.286Z,18.49
2022-08-26T03:56:13.399Z,18.47
2022-08-26T03:57:13.265Z,18.47
2022-08-26T03:58:13.263Z,18.47
2022-08-26T03:59:13.343Z,18.45
2022-08-26T04:00:13.304Z,18.45
2022-08-26T04:01:13.249Z,18.44
2022-08-26T04:02:13.202Z,18.44
2022-08-26T04:03:16.982Z,18.42
2022-08-26T04:04:15.629Z,18.42
2022-08-26T04:05:13.153Z,18.41
2022-08-26T04:06:13.196Z,18.38
2022-08-26T04:07:13.163Z,18.39
2022-08-26T04:08:13.162Z,18.38
2022-08-26T04:09:13.135Z,18.38
2022-08-26T04:10:13.129Z,18.36
2022-08-26T04:11:13.188Z,18.35
2022-08-26T04:12:13.099Z,18.34
2022-08-26T04:13:13.051Z,18.34
2022-08-26T04:14:13.094Z,18.32
2022-08-26T04:15:13.182Z,18.31
2022-08-26T04:16:13.224Z,18.31
2022-08-26T04:17:13.010Z,18.32
2022-08-26T04:18:12.990Z,18.31
2022-08-26T04:19:13.010Z,18.29
2022-08-26T04:20:12.969Z,18.29
2022-08-26T04:21:12.980Z,18.26
2022-08-26T04:22:12.966Z,18.27
2022-08-26T04:23:12.949Z,18.27
2022-08-26T04:24:12.908Z,18.26
2022-08-26T04:25:12.912Z,18.24
2022-08-26T04:26:12.926Z,18.23
2022-08-26T04:27:12.917Z,18.24
2022-08-26T04:28:12.955Z,18.21
2022-08-26T04:29:12.840Z,18.23
2022-08-26T04:30:12.931Z,18.23
2022-08-26T04:31:12.840Z,18.21
2022-08-26T04:32:12.832Z,18.21
2022-08-26T04:33:13.497Z,18.20
2022-08-26T04:34:14.094Z,18.20
2022-08-26T04:35:12.785Z,18.20
2022-08-26T04:36:12.828Z,18.21
2022-08-26T04:37:12.756Z,18.21
2022-08-26T04:38:12.959Z,18.21
2022-08-26T04:39:12.723Z,18.20
2022-08-26T04:40:12.779Z,18.20
2022-08-26T04:41:15.505Z,18.20
2022-08-26T04:42:12.730Z,18.20
2022-08-26T04:43:12.688Z,18.20
2022-08-26T04:44:12.668Z,18.20
2022-08-26T04:45:12.741Z,18.20
2022-08-26T04:46:12.914Z,18.23
2022-08-26T04:47:12.624Z,18.21
2022-08-26T04:48:12.630Z,18.21
2022-08-26T04:49:12.606Z,18.21
2022-08-26T04:50:12.592Z,18.23
2022-08-26T04:51:16.402Z,18.26
2022-08-26T04:52:12.606Z,18.23
2022-08-26T04:53:12.555Z,18.23
2022-08-26T04:54:12.581Z,18.26
2022-08-26T04:55:12.512Z,18.24
2022-08-26T04:56:12.555Z,18.26
2022-08-26T04:57:12.471Z,18.24
2022-08-26T04:58:12.471Z,18.26
2022-08-26T04:59:17.094Z,18.26
2022-08-26T05:00:13.471Z,18.27
2022-08-26T05:01:12.536Z,18.26
2022-08-26T05:02:12.428Z,18.27
2022-08-26T05:03:12.450Z,18.26
2022-08-26T05:04:12.447Z,18.27
2022-08-26T05:05:12.400Z,18.29
2022-08-26T05:06:12.368Z,18.29
2022-08-26T05:07:12.359Z,18.31
2022-08-26T05:08:12.359Z,18.31
2022-08-26T05:09:12.328Z,18.31
2022-08-26T05:10:12.358Z,18.32
2022-08-26T05:11:12.343Z,18.34
2022-08-26T05:12:12.310Z,18.34
2022-08-26T05:13:15.111Z,18.35
2022-08-26T05:14:12.372Z,18.35
2022-08-26T05:15:12.277Z,18.36
2022-08-26T05:16:12.295Z,18.38
2022-08-26T05:17:14.920Z,18.39
2022-08-26T05:18:12.239Z,18.39
2022-08-26T05:19:12.237Z,18.41
2022-08-26T05:20:12.262Z,18.42
2022-08-26T05:21:12.367Z,18.44
2022-08-26T05:22:13.070Z,18.45
2022-08-26T05:23:12.145Z,18.47
2022-08-26T05:24:12.322Z,18.47
2022-08-26T05:25:12.144Z,18.47
2022-08-26T05:26:12.114Z,18.49
2022-08-26T05:27:12.134Z,18.51
2022-08-26T05:28:12.086Z,18.51
2022-08-26T05:29:12.099Z,18.56
2022-08-26T05:30:12.092Z,18.57
2022-08-26T05:31:12.314Z,18.59
2022-08-26T05:32:12.049Z,18.60
2022-08-26T05:33:12.114Z,18.61
2022-08-26T05:34:12.146Z,18.66
2022-08-26T05:35:12.019Z,18.66
2022-08-26T05:36:12.013Z,18.68
2022-08-26T05:37:15.823Z,18.69
2022-08-26T05:38:12.958Z,18.71
2022-08-26T05:39:15.881Z,18.72
2022-08-26T05:40:11.951Z,18.75
2022-08-26T05:41:11.932Z,18.75
2022-08-26T05:42:11.951Z,18.79
2022-08-26T05:43:15.751Z,18.81
2022-08-26T05:44:11.881Z,18.86
2022-08-26T05:45:11.901Z,18.86
2022-08-26T05:46:11.917Z,18.89
2022-08-26T05:47:11.865Z,18.90
2022-08-26T05:48:11.875Z,18.93
2022-08-26T05:49:12.443Z,18.94
2022-08-26T05:50:11.810Z,18.99
2022-08-26T05:51:11.971Z,19.02
2022-08-26T05:52:11.783Z,19.05
2022-08-26T05:53:12.133Z,19.09
2022-08-26T05:54:11.858Z,19.12
2022-08-26T05:55:11.777Z,19.12
2022-08-26T05:56:11.748Z,19.16
2022-08-26T05:57:11.755Z,19.19
2022-08-26T05:58:11.768Z,19.24
2022-08-26T05:59:14.328Z,19.25
2022-08-26T06:00:11.708Z,19.30
2022-08-26T06:01:11.869Z,19.32
2022-08-26T06:02:11.725Z,19.37
2022-08-26T06:03:11.795Z,19.40
2022-08-26T06:04:11.676Z,19.43
2022-08-26T06:05:11.718Z,19.47
2022-08-26T06:06:11.627Z,19.50
2022-08-26T06:07:11.781Z,19.55
2022-08-26T06:08:11.646Z,19.60
2022-08-26T06:09:11.593Z,19.64
2022-08-26T06:10:31.109Z,19.67
2022-08-26T06:11:18.466Z,19.70
2022-08-26T06:12:12.624Z,19.74
2022-08-26T06:13:12.228Z,19.79
2022-08-26T06:14:11.554Z,19.82
2022-08-26T06:15:11.500Z,19.86
2022-08-26T06:16:11.577Z,19.93
2022-08-26T06:17:11.514Z,19.97
2022-08-26T06:18:11.486Z,20.01
2022-08-26T06:19:11.795Z,20.04
2022-08-26T06:20:11.604Z,20.11
2022-08-26T06:21:11.430Z,20.12
2022-08-26T06:22:11.452Z,20.18
2022-08-26T06:23:11.392Z,20.23
2022-08-26T06:24:11.446Z,20.26
2022-08-26T06:25:11.551Z,20.30
2022-08-26T06:26:11.419Z,20.35
2022-08-26T06:27:11.528Z,20.41
2022-08-26T06:28:11.371Z,20.44
2022-08-26T06:29:11.329Z,20.51
2022-08-26T06:30:12.352Z,20.54
2022-08-26T06:31:11.401Z,20.58
2022-08-26T06:32:11.331Z,20.64
2022-08-26T06:33:11.292Z,20.68
2022-08-26T06:34:11.302Z,20.72
2022-08-26T06:35:12.231Z,20.76
2022-08-26T06:36:11.290Z,20.81
2022-08-26T06:37:11.251Z,20.85
2022-08-26T06:38:11.272Z,20.90
2022-08-26T06:39:11.210Z,20.94
2022-08-26T06:40:11.608Z,20.98
2022-08-26T06:41:11.147Z,21.03
2022-08-26T06:42:11.978Z,21.09
2022-08-26T06:43:11.187Z,21.13
2022-08-26T06:44:11.122Z,21.21
2022-08-26T06:45:11.216Z,21.25
2022-08-26T06:46:11.156Z,21.31
2022-08-26T06:47:11.185Z,21.37
2022-08-26T06:48:11.159Z,21.41
2022-08-26T06:49:11.097Z,21.46
2022-08-26T06:50:11.109Z,21.51
2022-08-26T06:51:11.061Z,21.53
2022-08-26T06:52:11.050Z,21.58
2022-08-26T06:53:11.066Z,21.62
2022-08-26T06:54:11.128Z,21.67
2022-08-26T06:55:11.110Z,21.70
2022-08-26T06:56:11.127Z,21.74
2022-08-26T06:57:11.055Z,21.77
2022-08-26T06:58:11.030Z,21.82
2022-08-26T06:59:10.955Z,21.83
2022-08-26T07:00:11.055Z,21.89
2022-08-26T07:01:11.774Z,21.92
2022-08-26T07:02:11.013Z,21.94
2022-08-26T07:03:11.268Z,21.96
2022-08-26T07:04:10.926Z,21.99
2022-08-26T07:05:10.857Z,22.00
2022-08-26T07:06:10.853Z,22.04
2022-08-26T07:07:10.855Z,22.07
2022-08-26T07:08:10.853Z,22.08
2022-08-26T07:09:10.810Z,22.09
2022-08-26T07:10:10.833Z,22.12
2022-08-26T07:11:10.802Z,22.14
2022-08-26T07:12:10.786Z,22.16
2022-08-26T07:13:10.789Z,22.18
2022-08-26T07:14:10.761Z,22.20
2022-08-26T07:15:10.778Z,22.22
2022-08-26T07:16:10.808Z,22.23
2022-08-26T07:17:13.845Z,22.26
2022-08-26T07:18:10.782Z,22.29
2022-08-26T07:19:11.624Z,22.29
2022-08-26T07:20:10.681Z,22.31
2022-08-26T07:21:10.699Z,22.33
2022-08-26T07:22:10.690Z,22.34
2022-08-26T07:23:11.779Z,22.36
2022-08-26T07:24:11.200Z,22.34
2022-08-26T07:25:10.673Z,22.39
2022-08-26T07:26:10.629Z,22.39
2022-08-26T07:27:10.630Z,22.39
2022-08-26T07:28:10.719Z,22.41
2022-08-26T07:29:10.577Z,22.45
2022-08-26T07:30:10.559Z,22.45
2022-08-26T07:31:10.608Z,22.45
2022-08-26T07:32:10.509Z,22.46
2022-08-26T07:33:10.546Z,22.49
2022-08-26T07:34:10.543Z,22.52
2022-08-26T07:35:10.510Z,22.55
2022-08-26T07:36:10.488Z,22.57
2022-08-26T07:37:10.461Z,22.61
2022-08-26T07:38:10.435Z,22.64
2022-08-26T07:39:10.498Z,22.66
2022-08-26T07:40:10.471Z,22.67
2022-08-26T07:41:10.486Z,22.70
2022-08-26T07:42:10.446Z,22.73
2022-08-26T07:43:10.433Z,22.75
2022-08-26T07:44:10.377Z,22.76
2022-08-26T07:45:10.438Z,22.78
2022-08-26T07:46:14.459Z,22.79
2022-08-26T07:47:25.031Z,22.82
2022-08-26T07:48:11.327Z,22.81
2022-08-26T07:49:10.359Z,22.84
2022-08-26T07:50:10.304Z,22.85
2022-08-26T07:51:10.294Z,22.88
2022-08-26T07:52:10.284Z,22.88
2022-08-26T07:53:10.625Z,22.92
2022-08-26T07:54:10.244Z,22.92
2022-08-26T07:55:10.256Z,22.96
2022-08-26T07:56:10.221Z,22.97
2022-08-26T07:57:10.256Z,22.99
2022-08-26T07:58:10.203Z,23.01
2022-08-26T07:59:13.625Z,23.04
2022-08-26T08:00:10.208Z,23.09
2022-08-26T08:01:10.223Z,23.10
2022-08-26T08:02:10.138Z,23.15
2022-08-26T08:03:10.332Z,23.18
2022-08-26T08:04:10.279Z,23.21
2022-08-26T08:05:10.233Z,23.25
2022-08-26T08:06:10.094Z,23.28
2022-08-26T08:07:11.473Z,23.35
2022-08-26T08:08:27.190Z,23.38
2022-08-26T08:09:11.053Z,23.41
2022-08-26T08:10:11.640Z,23.44
2022-08-26T08:11:10.051Z,23.47
2022-08-26T08:12:14.119Z,23.50
2022-08-26T08:13:10.073Z,23.53
2022-08-26T08:14:11.745Z,23.56
2022-08-26T08:15:10.096Z,23.59
2022-08-26T08:16:12.709Z,23.62
2022-08-26T08:17:10.067Z,23.63
2022-08-26T08:18:15.196Z,23.70
2022-08-26T08:19:10.996Z,23.72
2022-08-26T08:20:09.935Z,23.78
2022-08-26T08:21:25.333Z,23.79
2022-08-26T08:22:17.739Z,23.84
2022-08-26T08:23:10.969Z,23.87
2022-08-26T08:24:09.839Z,23.92
2022-08-26T08:25:10.386Z,23.97
2022-08-26T08:26:09.828Z,23.99
2022-08-26T08:27:09.826Z,24.02
2022-08-26T08:28:10.040Z,24.08
2022-08-26T08:29:09.829Z,24.11
2022-08-26T08:30:09.778Z,24.14
2022-08-26T08:31:09.884Z,24.18
2022-08-26T08:32:11.540Z,24.21
2022-08-26T08:33:10.848Z,24.26
2022-08-26T08:34:09.764Z,24.29
2022-08-26T08:35:10.880Z,24.32
2022-08-26T08:36:09.737Z,24.32
2022-08-26T08:37:10.978Z,24.37
2022-08-26T08:38:09.844Z,24.39
2022-08-26T08:39:09.741Z,24.44
2022-08-26T08:40:09.749Z,24.48
2022-08-26T08:41:09.722Z,24.52
2022-08-26T08:42:09.624Z,24.55
2022-08-26T08:43:10.133Z,24.58
2022-08-26T08:44:10.029Z,24.63
2022-08-26T08:45:09.765Z,24.66
2022-08-26T08:46:09.650Z,24.70
2022-08-26T08:47:09.584Z,24.75
2022-08-26T08:48:09.886Z,24.80
2022-08-26T08:49:09.557Z,24.85
2022-08-26T08:50:09.515Z,24.87
2022-08-26T08:51:09.502Z,24.92
2022-08-26T08:52:10.159Z,24.93
2022-08-26T08:53:09.744Z,25.00
2022-08-26T08:54:09.511Z,25.02
2022-08-26T08:55:10.958Z,25.08
2022-08-26T08:56:09.548Z,25.08
2022-08-26T08:57:09.448Z,25.14
2022-08-26T08:58:09.638Z,25.17
2022-08-26T08:59:09.461Z,25.24
2022-08-26T09:00:09.422Z,25.29
2022-08-26T09:01:09.767Z,25.33
2022-08-26T09:02:09.447Z,25.39
2022-08-26T09:03:09.360Z,25.42
2022-08-26T09:04:09.569Z,25.45
2022-08-26T09:05:09.356Z,25.51
2022-08-26T09:06:10.362Z,25.57
2022-08-26T09:07:09.372Z,25.62
2022-08-26T09:08:11.280Z,25.67
2022-08-26T09:09:09.269Z,25.71
2022-08-26T09:10:09.262Z,25.76
2022-08-26T09:11:09.273Z,25.82
2022-08-26T09:12:09.290Z,25.86
2022-08-26T09:13:09.318Z,25.91
2022-08-26T09:14:09.233Z,25.93
2022-08-26T09:15:09.229Z,25.94
2022-08-26T09:16:10.003Z,25.99
2022-08-26T09:17:09.340Z,26.01
2022-08-26T09:18:10.811Z,26.06
2022-08-26T09:19:09.177Z,26.07
2022-08-26T09:20:09.157Z,26.12
2022-08-26T09:21:09.293Z,26.19
2022-08-26T09:22:09.581Z,26.19
2022-08-26T09:23:09.299Z,26.20
2022-08-26T09:24:11.305Z,26.22
2022-08-26T09:25:11.061Z,26.26
2022-08-26T09:26:09.109Z,26.32
2022-08-26T09:27:11.468Z,26.34
2022-08-26T09:28:09.233Z,26.34
2022-08-26T09:29:09.166Z,26.37
2022-08-26T09:30:11.335Z,26.38
2022-08-26T09:31:11.190Z,26.39
2022-08-26T09:32:09.002Z,26.44
2022-08-26T09:33:10.937Z,26.47
2022-08-26T09:34:09.241Z,26.50
2022-08-26T09:35:09.220Z,26.52
2022-08-26T09:36:09.276Z,26.54
2022-08-26T09:37:08.982Z,26.60
2022-08-26T09:38:11.681Z,26.63
2022-08-26T09:39:12.555Z,26.71
2022-08-26T09:40:08.991Z,26.74
2022-08-26T09:41:08.942Z,26.79
2022-08-26T09:42:09.606Z,26.82
2022-08-26T09:43:08.931Z,26.89
2022-08-26T09:44:08.875Z,26.93
2022-08-26T09:45:09.804Z,26.96
2022-08-26T09:46:08.849Z,26.99
2022-08-26T09:47:08.854Z,26.99
2022-08-26T09:48:09.211Z,27.00
2022-08-26T09:49:08.944Z,27.01
2022-08-26T09:50:09.471Z,27.05
2022-08-26T09:51:08.933Z,27.08
2022-08-26T09:52:08.716Z,27.12
2022-08-26T09:53:10.015Z,27.13
2022-08-26T09:54:08.724Z,27.15
2022-08-26T09:55:08.745Z,27.16
2022-08-26T09:56:08.717Z,27.19
2022-08-26T09:57:08.684Z,27.21
2022-08-26T09:58:09.128Z,27.23
2022-08-26T09:59:11.046Z,27.24
2022-08-26T10:00:08.690Z,27.24
2022-08-26T10:01:08.745Z,27.24
2022-08-26T10:02:12.305Z,27.24
2022-08-26T10:03:08.843Z,27.24
2022-08-26T10:04:08.662Z,27.23
2022-08-26T10:05:09.605Z,27.24
2022-08-26T10:06:08.570Z,27.23
2022-08-26T10:07:08.578Z,27.23
2022-08-26T10:08:08.570Z,27.23
2022-08-26T10:09:10.785Z,27.24
2022-08-26T10:10:08.615Z,27.26
2022-08-26T10:11:08.560Z,27.28
2022-08-26T10:12:08.484Z,27.31
2022-08-26T10:13:08.517Z,27.33
2022-08-26T10:14:08.466Z,27.34
2022-08-26T10:15:08.569Z,27.36
2022-08-26T10:16:10.702Z,27.36
2022-08-26T10:17:08.458Z,27.33
2022-08-26T10:18:08.567Z,27.36
2022-08-26T10:19:08.391Z,27.34
2022-08-26T10:20:22.491Z,27.34
2022-08-26T10:21:09.418Z,27.37
2022-08-26T10:22:08.388Z,27.37
2022-08-26T10:23:08.534Z,27.41
2022-08-26T10:24:08.418Z,27.43
2022-08-26T10:25:08.396Z,27.45
2022-08-26T10:26:08.610Z,27.46
2022-08-26T10:27:08.296Z,27.46
2022-08-26T10:28:08.410Z,27.49
2022-08-26T10:29:08.326Z,27.52
2022-08-26T10:30:08.236Z,27.55
2022-08-26T10:31:08.281Z,27.59
2022-08-26T10:32:08.310Z,27.62
2022-08-26T10:33:09.413Z,27.65
2022-08-26T10:34:08.195Z,27.66
2022-08-26T10:35:08.175Z,27.68
2022-08-26T10:36:08.194Z,27.68
2022-08-26T10:37:13.504Z,27.71
2022-08-26T10:38:09.511Z,27.74
2022-08-26T10:39:08.138Z,27.75
2022-08-26T10:40:08.205Z,27.80
2022-08-26T10:41:10.346Z,27.84
2022-08-26T10:42:08.223Z,27.86
2022-08-26T10:43:11.376Z,27.87
2022-08-26T10:44:08.074Z,27.90
2022-08-26T10:45:11.933Z,27.91
2022-08-26T10:46:09.071Z,27.94
2022-08-26T10:47:08.078Z,27.98
2022-08-26T10:48:08.239Z,28.01
2022-08-26T10:49:08.044Z,28.03
2022-08-26T10:50:08.366Z,28.05
2022-08-26T10:51:08.672Z,28.11
2022-08-26T10:52:12.343Z,28.16
2022-08-26T10:53:09.760Z,28.18
2022-08-26T10:54:08.015Z,28.20
2022-08-26T10:55:08.480Z,28.24
2022-08-26T10:56:15.698Z,28.27
2022-08-26T10:57:09.640Z,28.28
2022-08-26T10:58:09.050Z,28.31
2022-08-26T10:59:10.402Z,28.33
2022-08-26T11:00:07.931Z,28.35
2022-08-26T11:01:10.267Z,28.35
2022-08-26T11:02:07.850Z,28.36
2022-08-26T11:03:21.742Z,28.39
2022-08-26T11:04:08.850Z,28.43
2022-08-26T11:05:07.813Z,28.43
2022-08-26T11:06:07.808Z,28.49
2022-08-26T11:07:07.909Z,28.53
2022-08-26T11:08:08.052Z,28.55
2022-08-26T11:09:07.843Z,28.58
2022-08-26T11:10:07.792Z,28.67
2022-08-26T11:11:07.918Z,28.70
2022-08-26T11:12:10.296Z,28.73
2022-08-26T11:13:07.895Z,28.76
2022-08-26T11:14:07.735Z,28.79
2022-08-26T11:15:07.688Z,28.79
2022-08-26T11:16:07.774Z,28.86
2022-08-26T11:17:07.831Z,28.90
2022-08-26T11:18:07.808Z,28.97
2022-08-26T11:19:07.707Z,29.03
2022-08-26T11:20:13.486Z,29.10
2022-08-26T11:21:10.307Z,29.18
2022-08-26T11:22:07.596Z,29.23
2022-08-26T11:23:07.629Z,29.26
2022-08-26T11:24:07.586Z,29.30
2022-08-26T11:25:07.616Z,29.33
2022-08-26T11:26:07.557Z,29.38
2022-08-26T11:27:07.578Z,29.39
2022-08-26T11:28:07.545Z,29.43
2022-08-26T11:29:13.217Z,29.40
2022-08-26T11:30:08.585Z,29.40
2022-08-26T11:31:07.627Z,29.39
2022-08-26T11:32:07.465Z,29.38
2022-08-26T11:33:07.997Z,29.36
2022-08-26T11:34:10.770Z,29.40
2022-08-26T11:35:07.617Z,29.47
2022-08-26T11:36:12.220Z,29.50
2022-08-26T11:37:07.556Z,29.54
2022-08-26T11:38:07.706Z,29.55
2022-08-26T11:39:07.425Z,29.57
2022-08-26T11:40:07.443Z,29.55
2022-08-26T11:41:07.430Z,29.57
2022-08-26T11:42:07.403Z,29.55
2022-08-26T11:43:07.514Z,29.55
2022-08-26T11:44:07.343Z,29.55
2022-08-26T11:45:07.493Z,29.51
2022-08-26T11:46:07.393Z,29.35
2022-08-26T11:47:07.427Z,29.10
2022-08-26T11:48:07.528Z,28.83
2022-08-26T11:49:07.560Z,28.67
2022-08-26T11:50:07.373Z,28.54
2022-08-26T11:51:07.312Z,28.36
2022-08-26T11:52:07.204Z,28.14
2022-08-26T11:53:07.768Z,27.87
2022-08-26T11:54:07.372Z,27.66
2022-08-26T11:55:07.220Z,27.53
2022-08-26T11:56:07.170Z,27.42
2022-08-26T11:57:09.443Z,27.37
2022-08-26T11:58:07.365Z,27.31
2022-08-26T11:59:07.160Z,27.28
2022-08-26T12:00:08.400Z,27.18
2022-08-26T12:01:09.793Z,27.13
2022-08-26T12:02:07.231Z,27.08
2022-08-26T12:03:07.379Z,26.99
2022-08-26T12:04:07.338Z,26.87
2022-08-26T12:05:08.940Z,26.84
2022-08-26T12:06:07.147Z,26.79
2022-08-26T12:07:08.629Z,26.78
2022-08-26T12:08:07.165Z,26.75
2022-08-26T12:09:07.012Z,26.72
2022-08-26T12:10:07.088Z,26.74
2022-08-26T12:11:07.009Z,26.75
2022-08-26T12:12:07.147Z,26.76
2022-08-26T12:13:08.442Z,26.81
2022-08-26T12:14:07.344Z,26.82
2022-08-26T12:15:07.020Z,26.86
2022-08-26T12:16:07.011Z,26.87
2022-08-26T12:17:06.950Z,26.90
2022-08-26T12:18:06.992Z,26.96
2022-08-26T12:19:07.184Z,27.00
2022-08-26T12:20:06.939Z,27.04
2022-08-26T12:21:06.906Z,27.06
2022-08-26T12:22:06.856Z,27.11
2022-08-26T12:23:06.857Z,27.15
2022-08-26T12:24:06.883Z,27.21
2022-08-26T12:25:06.902Z,27.23
2022-08-26T12:26:06.798Z,27.31
2022-08-26T12:27:06.814Z,27.41
2022-08-26T12:28:06.777Z,27.49
2022-08-26T12:29:19.765Z,27.64
2022-08-26T12:30:08.445Z,27.76
2022-08-26T12:31:06.748Z,27.83
2022-08-26T12:32:06.752Z,27.91
2022-08-26T12:33:22.420Z,28.01
2022-08-26T12:34:17.361Z,28.16
2022-08-26T12:35:07.812Z,28.30
2022-08-26T12:36:06.765Z,28.42
2022-08-26T12:37:07.253Z,28.53
2022-08-26T12:38:06.680Z,28.60
2022-08-26T12:39:06.751Z,28.68
2022-08-26T12:40:06.749Z,28.82
2022-08-26T12:41:06.642Z,28.92
2022-08-26T12:42:06.753Z,29.06
2022-08-26T12:43:06.594Z,29.17
2022-08-26T12:44:06.653Z,29.29
2022-08-26T12:45:06.607Z,29.42
2022-08-26T12:46:06.967Z,29.50
2022-08-26T12:47:06.586Z,29.61
2022-08-26T12:48:06.640Z,29.69
2022-08-26T12:49:06.600Z,29.81
2022-08-26T12:50:06.685Z,29.92
2022-08-26T12:51:06.488Z,30.04
2022-08-26T12:52:06.564Z,30.10